Alyeska Resort
Max's Hourly Weather Roundup
ALYESKA_MAX 7/23/2017
Click Here for Graph

        DATE  TIME   Air  Wind  Wind  Wind  BATT   Rel
                    Temp   Spd   Dir  Gust  Volt  Hum%
                      F   MPH   AVG   MPH   AVG   AVG

   7/23/2017 16:00    62     3   172    13 13.78    82
   7/23/2017 15:00    61     2   170    12 13.74    82
   7/23/2017 14:00    61     1   209     9 13.74    84
   7/23/2017 13:00    59     1   202     7 13.75    86
   7/23/2017 12:00    58     0   205     6 13.74    86
   7/23/2017 11:00    58     0   216     2 13.70    80
   7/23/2017 10:00    59     0   207     2 13.63    75
   7/23/2017 09:00    58     0   147     5 13.61    74
   7/23/2017 08:00    58     0    81     2 13.62    74
   7/23/2017 07:00    57     2    96     7 12.94    74
   7/23/2017 06:00    56     0   128     5 12.81    76
   7/23/2017 05:00    56     0   146     2 12.83    75
   7/23/2017 04:00    57     0   130     2 12.85    78
   7/23/2017 03:00    57     0   156     1 12.87    78
   7/23/2017 02:00    58     0   251     3 12.90    78
   7/23/2017 01:00    58     3   150     8 12.93    79
   7/22/2017 24:00    58     1   183     5 12.99    79
   7/22/2017 23:00    61     0   177     0 13.16    75
   7/22/2017 22:00    63     0   284     0 13.89    70
   7/22/2017 21:00    65     0   281     4 13.87    71
   7/22/2017 20:00    66     0   243     6 13.85    69
   7/22/2017 19:00    66     1   221     9 13.84    66
   7/22/2017 18:00    65     2   209     8 13.83    68
   7/22/2017 17:00    64     3   188     8 13.81    73


Click Here for Graph